createdAt,value
2022-09-24T00:00:27.581Z,7.35
2022-09-24T00:02:57.847Z,4.47
2022-09-24T00:05:28.183Z,6.18
2022-09-24T00:08:01.622Z,8.38
2022-09-24T00:10:31.813Z,3.33
2022-09-24T00:13:02.021Z,4.10
2022-09-24T00:15:32.446Z,3.67
2022-09-24T00:18:02.641Z,4.90
2022-09-24T00:20:33.174Z,3.80
2022-09-24T00:23:05.939Z,4.90
2022-09-24T00:25:48.660Z,4.78
2022-09-24T00:28:19.211Z,4.40
2022-09-24T00:30:49.468Z,7.38
2022-09-24T00:33:19.639Z,4.22
2022-09-24T00:35:49.860Z,6.05
2022-09-24T00:38:22.627Z,5.00
2022-09-24T00:40:53.022Z,4.70
2022-09-24T00:43:28.003Z,3.95
2022-09-24T00:46:00.582Z,5.63
2022-09-24T00:48:33.681Z,7.90
2022-09-24T00:51:04.287Z,5.63
2022-09-24T00:53:37.700Z,4.32
2022-09-24T00:56:08.635Z,7.03
2022-09-24T00:58:39.205Z,6.18
2022-09-24T01:01:11.028Z,3.95
2022-09-24T01:03:42.541Z,3.97
2022-09-24T01:06:13.254Z,4.85
2022-09-24T01:08:46.483Z,5.80
2022-09-24T01:11:34.776Z,5.65
2022-09-24T01:14:26.896Z,4.60
2022-09-24T01:17:07.769Z,9.25
2022-09-24T01:19:48.577Z,6.05
2022-09-24T01:22:25.280Z,4.05
2022-09-24T01:25:03.975Z,4.45
2022-09-24T01:27:42.737Z,4.72
2022-09-24T01:30:16.336Z,4.93
2022-09-24T01:32:49.683Z,4.78
2022-09-24T01:35:21.588Z,6.10
2022-09-24T01:37:54.800Z,5.47
2022-09-24T01:40:27.096Z,4.95
2022-09-24T01:42:58.580Z,4.95
2022-09-24T01:45:32.270Z,4.65
2022-09-24T01:48:03.391Z,4.60
2022-09-24T01:50:36.595Z,4.93
2022-09-24T01:53:08.612Z,4.97
2022-09-24T01:55:41.169Z,4.20
2022-09-24T01:58:13.010Z,4.50
2022-09-24T02:00:47.628Z,5.13
2022-09-24T02:03:20.154Z,4.57
2022-09-24T02:05:54.426Z,4.57
2022-09-24T02:08:25.436Z,4.63
2022-09-24T02:11:00.446Z,5.80
2022-09-24T02:13:33.478Z,5.30
2022-09-24T02:16:07.957Z,8.02
2022-09-24T02:18:39.823Z,4.80
2022-09-24T02:21:13.600Z,5.80
2022-09-24T02:23:48.352Z,4.63
2022-09-24T02:26:18.611Z,6.32
2022-09-24T02:28:48.780Z,6.60
2022-09-24T02:31:25.489Z,4.75
2022-09-24T02:34:08.985Z,5.32
2022-09-24T02:36:39.321Z,4.90
2022-09-24T02:39:09.538Z,8.80
2022-09-24T02:41:41.070Z,4.53
2022-09-24T02:44:12.144Z,5.70
2022-09-24T02:46:45.004Z,4.00
2022-09-24T02:49:16.303Z,4.13
2022-09-24T02:51:46.966Z,5.97
2022-09-24T02:54:17.180Z,5.65
2022-09-24T02:56:47.553Z,4.10
2022-09-24T02:59:18.911Z,4.95
2022-09-24T03:01:52.924Z,3.88
2022-09-24T03:04:23.284Z,3.95
2022-09-24T03:06:53.450Z,3.40
2022-09-24T03:09:23.688Z,5.05
2022-09-24T03:11:53.903Z,5.20
2022-09-24T03:14:25.175Z,5.25
2022-09-24T03:16:57.960Z,6.03
2022-09-24T03:19:28.198Z,6.05
2022-09-24T03:21:58.375Z,4.10
2022-09-24T03:24:28.566Z,9.48
2022-09-24T03:26:58.747Z,3.55
2022-09-24T03:29:41.180Z,4.10
2022-09-24T03:32:14.028Z,3.67
2022-09-24T03:34:44.226Z,6.22
2022-09-24T03:37:14.444Z,3.55
2022-09-24T03:39:44.720Z,6.13
2022-09-24T03:42:14.981Z,4.88
2022-09-24T03:44:45.172Z,3.90
2022-09-24T03:47:17.949Z,4.03
2022-09-24T03:49:48.140Z,4.97
2022-09-24T03:52:18.327Z,3.83
2022-09-24T03:54:48.618Z,5.43
2022-09-24T03:57:18.900Z,3.50
2022-09-24T03:59:49.096Z,3.72
2022-09-24T04:02:21.691Z,4.43
2022-09-24T04:04:52.223Z,3.80
2022-09-24T04:07:22.402Z,4.93
2022-09-24T04:09:52.979Z,4.97
2022-09-24T04:12:23.850Z,5.13
2022-09-24T04:14:54.020Z,5.60
2022-09-24T04:17:27.906Z,4.82
2022-09-24T04:19:57.806Z,4.60
2022-09-24T04:22:29.152Z,5.45
2022-09-24T04:25:00.420Z,4.88
2022-09-24T04:27:31.172Z,6.95
2022-09-24T04:30:01.490Z,6.03
2022-09-24T04:32:34.347Z,4.00
2022-09-24T04:35:07.620Z,4.57
2022-09-24T04:37:38.139Z,5.15
2022-09-24T04:40:12.701Z,4.65
2022-09-24T04:42:43.478Z,6.63
2022-09-24T04:45:15.245Z,4.78
2022-09-24T04:47:52.669Z,4.13
2022-09-24T04:50:23.514Z,4.57
2022-09-24T04:52:56.295Z,6.18
2022-09-24T04:55:27.813Z,4.45
2022-09-24T04:57:59.012Z,6.13
2022-09-24T05:00:31.675Z,8.75
2022-09-24T05:03:06.318Z,5.07
2022-09-24T05:05:37.549Z,5.63
2022-09-24T05:08:07.771Z,5.20
2022-09-24T05:10:38.038Z,5.10
2022-09-24T05:13:08.209Z,7.07
2022-09-24T05:15:42.851Z,5.30
2022-09-24T05:18:15.773Z,4.82
2022-09-24T05:20:46.018Z,6.43
2022-09-24T05:23:16.262Z,6.22
2022-09-24T05:25:58.750Z,4.72
2022-09-24T05:28:28.920Z,6.57
2022-09-24T05:31:00.447Z,5.15
2022-09-24T05:33:33.026Z,5.47
2022-09-24T05:36:03.699Z,5.35
2022-09-24T05:38:33.874Z,4.68
2022-09-24T05:41:04.557Z,6.15
2022-09-24T05:43:34.764Z,5.18
2022-09-24T05:46:05.055Z,9.07
2022-09-24T05:48:37.549Z,5.28
2022-09-24T05:51:07.891Z,7.28
2022-09-24T05:53:38.235Z,7.55
2022-09-24T05:56:10.308Z,6.80
2022-09-24T05:58:40.523Z,5.90
2022-09-24T06:01:10.823Z,8.60
2022-09-24T06:03:43.316Z,5.35
2022-09-24T06:06:13.334Z,5.07
2022-09-24T06:08:43.616Z,6.47
2022-09-24T06:11:14.324Z,5.00
2022-09-24T06:13:44.518Z,4.82
2022-09-24T06:16:15.257Z,4.60
2022-09-24T06:18:48.197Z,5.07
2022-09-24T06:21:19.553Z,4.15
2022-09-24T06:23:49.738Z,5.47
2022-09-24T06:26:19.907Z,8.48
2022-09-24T06:28:49.855Z,4.53
2022-09-24T06:31:20.269Z,8.13
2022-09-24T06:33:52.823Z,6.05
2022-09-24T06:36:23.004Z,4.13
2022-09-24T06:38:54.166Z,4.68
2022-09-24T06:41:24.435Z,4.70
2022-09-24T06:43:56.675Z,4.80
2022-09-24T06:46:27.012Z,6.03
2022-09-24T06:48:59.558Z,6.53
2022-09-24T06:51:29.532Z,5.10
2022-09-24T06:53:59.708Z,4.57
2022-09-24T06:56:31.102Z,4.90
2022-09-24T06:59:01.001Z,5.53
2022-09-24T07:01:31.303Z,6.32
2022-09-24T07:04:04.385Z,4.10
2022-09-24T07:06:54.666Z,4.18
2022-09-24T07:09:25.082Z,4.53
2022-09-24T07:11:57.058Z,6.10
2022-09-24T07:14:27.300Z,4.25
2022-09-24T07:16:57.520Z,7.75
2022-09-24T07:19:30.304Z,3.88
2022-09-24T07:22:00.812Z,4.70
2022-09-24T07:24:31.004Z,4.90
2022-09-24T07:27:01.214Z,4.43
2022-09-24T07:29:31.417Z,4.13
2022-09-24T07:32:01.650Z,7.28
2022-09-24T07:34:34.219Z,3.92
2022-09-24T07:37:04.417Z,4.93
2022-09-24T07:39:34.638Z,5.53
2022-09-24T07:42:04.841Z,5.32
2022-09-24T07:44:36.064Z,9.35
2022-09-24T07:47:06.512Z,5.75
2022-09-24T07:49:39.412Z,4.65
2022-09-24T07:52:10.644Z,6.25
2022-09-24T07:54:41.207Z,6.10
2022-09-24T07:57:14.861Z,4.88
2022-09-24T07:59:45.098Z,8.27
2022-09-24T08:02:19.746Z,6.65
2022-09-24T08:04:52.262Z,4.35
2022-09-24T08:07:22.489Z,6.25
2022-09-24T08:09:52.749Z,5.85
2022-09-24T08:12:22.671Z,5.03
2022-09-24T08:14:52.883Z,7.05
2022-09-24T08:17:23.087Z,6.70
2022-09-24T08:19:56.981Z,4.78
2022-09-24T08:22:27.835Z,6.35
2022-09-24T08:24:57.996Z,5.57
2022-09-24T08:27:27.926Z,7.28
2022-09-24T08:29:58.305Z,5.70
2022-09-24T08:32:29.266Z,4.90
2022-09-24T08:35:01.806Z,7.25
2022-09-24T08:37:31.944Z,8.35
2022-09-24T08:40:02.128Z,7.72
2022-09-24T08:42:39.783Z,9.65
2022-09-24T08:45:25.104Z,9.27
2022-09-24T08:47:59.039Z,7.97
2022-09-24T08:50:34.049Z,6.70
2022-09-24T08:53:15.900Z,8.73
2022-09-24T08:55:49.219Z,11.20
2022-09-24T08:58:32.988Z,6.68
2022-09-24T09:01:17.613Z,8.35
2022-09-24T09:03:52.066Z,7.18
2022-09-24T09:06:47.830Z,8.38
2022-09-24T09:09:20.665Z,9.55
2022-09-24T09:11:53.401Z,7.95
2022-09-24T09:14:31.467Z,8.57
2022-09-24T09:17:06.837Z,7.85
2022-09-24T09:19:39.417Z,8.57
2022-09-24T09:22:17.650Z,7.03
2022-09-24T09:24:51.607Z,8.43
2022-09-24T09:27:23.084Z,8.68
2022-09-24T09:29:54.970Z,7.07
2022-09-24T09:32:38.460Z,8.65
2022-09-24T09:35:19.561Z,9.57
2022-09-24T09:38:02.247Z,12.35
2022-09-24T09:40:38.375Z,10.68
2022-09-24T09:43:12.467Z,10.27
2022-09-24T09:48:16.742Z,10.98
2022-09-24T09:50:50.592Z,6.32
2022-09-24T09:55:57.033Z,6.43
2022-09-24T09:58:28.885Z,8.30
2022-09-24T10:01:07.645Z,7.65
2022-09-24T10:03:49.743Z,4.97
2022-09-24T10:06:28.224Z,6.63
2022-09-24T10:09:10.695Z,7.15
2022-09-24T10:11:41.213Z,4.78
2022-09-24T10:14:14.961Z,4.75
2022-09-24T10:16:47.443Z,5.07
2022-09-24T10:19:24.376Z,7.55
2022-09-24T10:21:57.440Z,4.88
2022-09-24T10:24:31.878Z,7.13
2022-09-24T10:27:02.241Z,6.63
2022-09-24T10:29:48.632Z,7.50
2022-09-24T10:32:21.532Z,6.43
2022-09-24T10:34:59.264Z,5.85
2022-09-24T10:37:30.386Z,7.25
2022-09-24T10:40:04.644Z,7.30
2022-09-24T10:42:34.855Z,11.27
2022-09-24T10:45:05.955Z,5.60
2022-09-24T10:47:44.235Z,6.60
2022-09-24T10:50:29.621Z,6.25
2022-09-24T10:53:02.404Z,5.93
2022-09-24T10:55:52.483Z,5.07
2022-09-24T10:58:42.449Z,3.88
2022-09-24T11:01:20.388Z,5.75
2022-09-24T11:04:06.535Z,5.30
2022-09-24T11:06:43.265Z,4.93
2022-09-24T11:09:20.588Z,4.97
2022-09-24T11:11:55.532Z,5.80
2022-09-24T11:14:39.512Z,4.10
2022-09-24T11:17:19.278Z,5.25
2022-09-24T11:20:06.768Z,5.03
2022-09-24T11:22:42.604Z,4.75
2022-09-24T11:25:21.755Z,5.57
2022-09-24T11:27:58.641Z,5.80
2022-09-24T11:30:35.654Z,6.45
2022-09-24T11:33:23.030Z,12.00
2022-09-24T11:36:07.612Z,6.00
2022-09-24T11:41:23.920Z,3.35
2022-09-24T11:44:13.507Z,9.10
2022-09-24T11:46:59.827Z,5.85
2022-09-24T11:49:37.799Z,4.97
2022-09-24T11:52:09.806Z,4.45
2022-09-24T11:54:42.362Z,3.20
2022-09-24T11:57:16.304Z,6.20
2022-09-24T11:59:53.399Z,3.83
2022-09-24T12:02:28.639Z,5.78
2022-09-24T12:05:01.785Z,5.60
2022-09-24T12:07:35.641Z,3.95
2022-09-24T12:10:07.705Z,6.18
2022-09-24T12:12:42.574Z,5.40
2022-09-24T12:15:19.462Z,5.13
2022-09-24T12:17:54.989Z,3.78
2022-09-24T12:20:28.492Z,8.63
2022-09-24T12:23:03.107Z,10.13
2022-09-24T12:25:36.416Z,3.30
2022-09-24T12:28:06.983Z,5.05
2022-09-24T12:30:56.035Z,4.78
2022-09-24T12:33:33.122Z,5.55
2022-09-24T12:36:07.116Z,4.50
2022-09-24T12:38:40.809Z,4.85
2022-09-24T12:41:35.827Z,7.68
2022-09-24T12:44:09.300Z,5.05
2022-09-24T12:46:43.202Z,6.88
2022-09-24T12:51:46.344Z,3.72
2022-09-24T12:54:24.471Z,8.40
2022-09-24T12:56:54.648Z,4.80
2022-09-24T12:59:28.643Z,6.80
2022-09-24T13:02:10.145Z,5.53
2022-09-24T13:04:40.464Z,6.40
2022-09-24T13:07:25.471Z,8.77
2022-09-24T13:09:58.116Z,5.18
2022-09-24T13:12:35.004Z,5.68
2022-09-24T13:15:06.738Z,6.43
2022-09-24T13:17:38.645Z,8.70
2022-09-24T13:20:09.384Z,8.45
2022-09-24T13:22:40.505Z,6.32
2022-09-24T13:25:28.719Z,5.95
2022-09-24T13:28:03.389Z,7.30
2022-09-24T13:30:40.942Z,6.70
2022-09-24T13:33:24.175Z,6.55
2022-09-24T13:36:04.109Z,6.37
2022-09-24T13:38:36.472Z,7.18
2022-09-24T13:41:17.169Z,4.22
2022-09-24T13:43:54.207Z,6.07
2022-09-24T13:46:24.609Z,4.00
2022-09-24T13:48:56.875Z,5.57
2022-09-24T13:51:30.086Z,6.35
2022-09-24T13:54:05.830Z,5.00
2022-09-24T13:56:36.445Z,6.28
2022-09-24T13:59:14.183Z,6.25
2022-09-24T14:01:47.218Z,8.45
2022-09-24T14:04:20.724Z,11.30
2022-09-24T14:06:52.912Z,6.72
2022-09-24T14:09:31.138Z,5.72
2022-09-24T14:12:05.515Z,9.40
2022-09-24T14:14:45.771Z,6.35
2022-09-24T14:17:18.172Z,5.40
2022-09-24T14:19:48.254Z,5.00
2022-09-24T14:22:23.624Z,7.53
2022-09-24T14:24:57.991Z,4.57
2022-09-24T14:27:28.779Z,8.27
2022-09-24T14:30:03.691Z,5.22
2022-09-24T14:32:35.596Z,5.90
2022-09-24T14:35:10.577Z,8.57
2022-09-24T14:37:42.495Z,4.68
2022-09-24T14:40:16.140Z,5.75
2022-09-24T14:42:49.031Z,5.78
2022-09-24T14:45:24.709Z,3.63
2022-09-24T14:48:04.194Z,6.15
2022-09-24T14:50:40.676Z,7.25
2022-09-24T14:53:16.175Z,7.35
2022-09-24T14:55:49.781Z,4.85
2022-09-24T14:58:27.010Z,4.80
2022-09-24T15:01:02.239Z,5.13
2022-09-24T15:03:40.445Z,4.63
2022-09-24T15:06:17.643Z,7.10
2022-09-24T15:08:54.509Z,5.05
2022-09-24T15:11:28.697Z,5.20
2022-09-24T15:14:05.816Z,9.63
2022-09-24T15:16:39.437Z,5.88
2022-09-24T15:19:20.812Z,5.25
2022-09-24T15:21:52.617Z,5.45
2022-09-24T15:24:26.902Z,5.40
2022-09-24T15:27:03.950Z,4.93
2022-09-24T15:29:34.405Z,5.63
2022-09-24T15:32:15.996Z,5.10
2022-09-24T15:34:46.069Z,3.40
2022-09-24T15:37:17.709Z,5.47
2022-09-24T15:39:49.390Z,5.93
2022-09-24T15:42:20.252Z,5.38
2022-09-24T15:44:50.793Z,8.75
2022-09-24T15:47:23.947Z,5.38
2022-09-24T15:49:54.168Z,4.10
2022-09-24T15:52:27.946Z,10.18
2022-09-24T15:54:59.544Z,6.00
2022-09-24T15:57:30.363Z,4.95
2022-09-24T16:00:00.564Z,5.45
2022-09-24T16:02:35.831Z,4.88
2022-09-24T16:05:06.317Z,5.63
2022-09-24T16:07:36.519Z,5.75
2022-09-24T16:10:07.189Z,4.53
2022-09-24T16:12:37.467Z,4.57
2022-09-24T16:15:08.145Z,4.80
2022-09-24T16:17:41.088Z,7.43
2022-09-24T16:20:12.784Z,8.50
2022-09-24T16:22:42.994Z,8.30
2022-09-24T16:25:13.606Z,5.35
2022-09-24T16:27:44.086Z,4.03
2022-09-24T16:30:15.096Z,5.85
2022-09-24T16:32:47.633Z,5.45
2022-09-24T16:35:17.941Z,7.57
2022-09-24T16:37:47.879Z,4.72
2022-09-24T16:40:18.274Z,6.15
2022-09-24T16:42:48.504Z,5.10
2022-09-24T16:45:19.691Z,7.88
2022-09-24T16:47:52.561Z,5.80
2022-09-24T16:50:23.786Z,5.30
2022-09-24T16:52:55.528Z,7.60
2022-09-24T16:55:26.835Z,8.15
2022-09-24T16:57:57.057Z,12.90
2022-09-24T17:00:27.291Z,6.78
2022-09-24T17:03:00.145Z,7.88
2022-09-24T17:05:34.208Z,8.23
2022-09-24T17:08:04.611Z,5.32
2022-09-24T17:10:32.215Z,6.72
2022-09-24T17:13:02.443Z,5.65
2022-09-24T17:15:32.697Z,6.78
2022-09-24T17:18:05.574Z,8.82
2022-09-24T17:20:35.807Z,6.60
2022-09-24T17:23:06.470Z,6.68
2022-09-24T17:25:36.668Z,5.53
2022-09-24T17:28:07.264Z,6.75
2022-09-24T17:30:37.980Z,4.78
2022-09-24T17:33:41.403Z,7.70
2022-09-24T17:36:03.986Z,7.43
2022-09-24T17:38:35.365Z,8.63
2022-09-24T17:41:07.823Z,7.38
2022-09-24T17:43:38.325Z,7.57
2022-09-24T17:46:14.175Z,9.75
2022-09-24T17:48:52.205Z,5.95
2022-09-24T17:51:23.846Z,9.05
2022-09-24T17:53:55.700Z,8.00
2022-09-24T17:56:27.538Z,9.27
2022-09-24T17:58:58.099Z,10.57
2022-09-24T18:01:33.442Z,8.70
2022-09-24T18:04:07.597Z,9.60
2022-09-24T18:09:10.095Z,9.05
2022-09-24T18:11:43.391Z,11.73
2022-09-24T18:14:17.516Z,11.38
2022-09-24T18:19:23.120Z,9.80
2022-09-24T18:21:53.446Z,11.63
2022-09-24T18:24:23.628Z,11.07
2022-09-24T18:26:53.857Z,13.05
2022-09-24T18:29:24.559Z,9.30
2022-09-24T18:31:54.745Z,12.68
2022-09-24T18:34:27.511Z,9.32
2022-09-24T18:36:57.724Z,11.63
2022-09-24T18:39:27.891Z,11.75
2022-09-24T18:41:58.185Z,10.45
2022-09-24T18:44:28.455Z,9.18
2022-09-24T18:46:58.648Z,8.75
2022-09-24T18:49:31.439Z,12.27
2022-09-24T18:52:01.729Z,10.57
2022-09-24T18:54:32.367Z,10.35
2022-09-24T18:57:02.572Z,8.30
2022-09-24T18:59:34.936Z,8.27
2022-09-24T19:02:05.302Z,9.77
2022-09-24T19:04:38.416Z,9.95
2022-09-24T19:07:08.995Z,10.83
2022-09-24T19:09:39.671Z,11.02
2022-09-24T19:12:10.038Z,13.10
2022-09-24T19:14:40.578Z,18.05
2022-09-24T19:17:10.788Z,15.43
2022-09-24T19:19:52.116Z,17.20
2022-09-24T19:22:22.776Z,18.30
2022-09-24T19:24:52.995Z,17.52
2022-09-24T19:27:23.177Z,16.35
2022-09-24T19:29:53.856Z,14.00
2022-09-24T19:32:24.047Z,17.20
2022-09-24T19:34:56.885Z,16.90
2022-09-24T19:37:27.099Z,17.38
2022-09-24T19:39:57.447Z,18.00
2022-09-24T19:42:27.651Z,18.40
2022-09-24T19:44:58.100Z,14.68
2022-09-24T19:47:28.315Z,14.20
2022-09-24T19:50:01.162Z,15.00
2022-09-24T19:52:32.199Z,18.92
2022-09-24T19:55:02.502Z,15.88
2022-09-24T19:57:35.012Z,16.35
2022-09-24T20:00:05.878Z,15.57
2022-09-24T20:02:36.109Z,13.40
2022-09-24T20:05:09.372Z,12.43
2022-09-24T20:07:39.654Z,14.55
2022-09-24T20:10:10.769Z,14.13
2022-09-24T20:12:42.736Z,17.95
2022-09-24T20:15:13.493Z,18.65
2022-09-24T20:17:43.717Z,17.83
2022-09-24T20:20:16.628Z,18.40
2022-09-24T20:22:46.845Z,16.30
2022-09-24T20:25:17.048Z,19.67
2022-09-24T20:27:51.048Z,16.50
2022-09-24T20:30:23.587Z,17.70
2022-09-24T20:32:53.936Z,20.45
2022-09-24T20:35:26.979Z,20.58
2022-09-24T20:37:57.213Z,20.92
2022-09-24T20:40:27.494Z,19.33
2022-09-24T20:42:58.142Z,20.95
2022-09-24T20:45:28.336Z,17.38
2022-09-24T20:47:58.612Z,18.88
2022-09-24T20:50:32.099Z,21.58
2022-09-24T20:53:02.306Z,19.25
2022-09-24T20:55:32.989Z,17.80
2022-09-24T20:58:03.227Z,15.70
2022-09-24T21:00:37.697Z,16.23
2022-09-24T21:03:31.836Z,13.23
2022-09-24T21:06:05.723Z,16.67
2022-09-24T21:08:36.333Z,18.50
2022-09-24T21:11:08.100Z,19.35
2022-09-24T21:13:42.385Z,15.27
2022-09-24T21:16:12.698Z,19.75
2022-09-24T21:18:45.200Z,19.35
2022-09-24T21:21:19.740Z,16.67
2022-09-24T21:23:52.835Z,17.48
2022-09-24T21:26:25.070Z,17.70
2022-09-24T21:28:56.707Z,20.60
2022-09-24T21:31:28.925Z,18.00
2022-09-24T21:33:59.218Z,20.63
2022-09-24T21:36:35.801Z,21.15
2022-09-24T21:39:12.942Z,17.60
2022-09-24T21:41:43.403Z,23.35
2022-09-24T21:44:16.304Z,21.77
2022-09-24T21:46:47.351Z,20.65
2022-09-24T21:49:17.566Z,25.75
2022-09-24T21:51:50.729Z,22.20
2022-09-24T21:54:21.450Z,23.77
2022-09-24T21:56:54.475Z,25.48
2022-09-24T21:59:37.227Z,25.98
2022-09-24T22:02:08.704Z,25.00
2022-09-24T22:04:39.394Z,20.48
2022-09-24T22:07:12.824Z,20.40
2022-09-24T22:09:43.138Z,19.77
2022-09-24T22:12:13.738Z,25.20
2022-09-24T22:14:45.521Z,19.80
2022-09-24T22:17:15.781Z,19.10
2022-09-24T22:19:46.045Z,19.05
2022-09-24T22:22:18.852Z,20.70
2022-09-24T22:24:49.450Z,18.17
2022-09-24T22:27:20.424Z,19.33
2022-09-24T22:29:50.690Z,20.75
2022-09-24T22:32:20.917Z,24.40
2022-09-24T22:35:03.578Z,26.38
2022-09-24T22:37:38.197Z,28.95
2022-09-24T22:40:09.041Z,26.15
2022-09-24T22:42:39.476Z,28.25
2022-09-24T22:45:11.171Z,28.52
2022-09-24T22:47:41.404Z,30.83
2022-09-24T22:50:12.478Z,30.45
2022-09-24T22:52:44.986Z,25.08
2022-09-24T22:55:14.911Z,29.52
2022-09-24T22:57:44.815Z,23.83
2022-09-24T23:00:18.122Z,24.10
2022-09-24T23:02:48.049Z,24.40
2022-09-24T23:05:18.184Z,21.67
2022-09-24T23:07:50.737Z,21.67
2022-09-24T23:10:21.168Z,20.02
2022-09-24T23:12:51.521Z,22.63
2022-09-24T23:15:21.440Z,22.60
2022-09-24T23:17:51.668Z,26.73
2022-09-24T23:20:22.048Z,25.10
2022-09-24T23:22:54.541Z,20.95
2022-09-24T23:25:24.447Z,21.65
2022-09-24T23:27:54.615Z,24.00
2022-09-24T23:30:24.577Z,35.08
2022-09-24T23:32:54.904Z,25.90
2022-09-24T23:35:25.099Z,26.58
2022-09-24T23:37:57.622Z,28.23
2022-09-24T23:40:29.889Z,30.38
2022-09-24T23:42:59.797Z,26.73
2022-09-24T23:45:29.697Z,28.60
2022-09-24T23:47:59.927Z,28.73
2022-09-24T23:50:30.338Z,31.45
2022-09-24T23:53:02.840Z,28.27
2022-09-24T23:55:32.723Z,30.95
2022-09-24T23:58:02.667Z,30.85
